Terminal Aerodrome Forecast
Issued by NWS

Home | Current Version | Previous Version | Text Only | Print | Product List | Glossary On
Versions: 1 2 3 4 5 6 7 8 9 10 11 12 13 14 15 16 17 18 19 20 21 22 23 24 25 26 27 28 29 30 31 32 33 34
000
FTUS43 KFGF 111219 AAA
TAFDVL
TAF AMD
KDVL 111219Z 1112/1212 34025G34KT P6SM OVC012
      TEMPO 1112/1114 BKN008
     FM111900 35018G27KT P6SM BKN035
     FM120000 33008KT P6SM SCT150
     FM120800 28008KT P6SM BKN015=

USA.gov is the U.S. government's official web portal to all federal, state and local government web resources and services.